createdAt,value
2022-11-05T16:57:31.786Z,3.03
2022-11-05T17:00:01.185Z,3.60
2022-11-05T17:02:29.534Z,3.03
2022-11-05T17:04:57.851Z,2.40
2022-11-05T17:07:26.282Z,4.20
2022-11-05T17:09:54.500Z,4.20
2022-11-05T17:12:22.773Z,4.20
2022-11-05T17:14:50.983Z,3.90
2022-11-05T17:17:19.121Z,3.25
2022-11-05T17:19:47.847Z,2.95
2022-11-05T17:22:15.973Z,2.50
2022-11-05T17:24:44.346Z,2.58
2022-11-05T17:27:12.559Z,2.55
2022-11-05T17:29:40.582Z,2.67
2022-11-05T17:32:08.847Z,3.25
2022-11-05T17:34:37.016Z,3.10
2022-11-05T17:37:05.183Z,3.40
2022-11-05T17:39:33.522Z,4.32
2022-11-05T17:42:01.876Z,3.80
2022-11-05T17:44:30.001Z,4.43
2022-11-05T17:46:58.661Z,5.07
2022-11-05T17:49:27.030Z,4.22
2022-11-05T17:51:55.358Z,3.30
2022-11-05T17:54:23.739Z,2.88
2022-11-05T17:56:52.017Z,3.22
2022-11-05T17:59:20.213Z,3.00
2022-11-05T18:01:48.341Z,3.25
2022-11-05T18:04:17.018Z,3.22
2022-11-05T18:06:44.976Z,3.63
2022-11-05T18:09:14.206Z,3.83
2022-11-05T18:11:43.249Z,3.63
2022-11-05T18:14:11.816Z,4.35
2022-11-05T18:16:40.696Z,3.95
2022-11-05T18:19:09.306Z,3.97
2022-11-05T18:21:37.597Z,4.47
2022-11-05T18:24:06.925Z,4.95
2022-11-05T18:26:35.416Z,6.30
2022-11-05T18:29:08.896Z,7.63
2022-11-05T18:31:37.186Z,9.70
2022-11-05T18:34:05.401Z,9.30
2022-11-05T18:36:34.231Z,10.15
2022-11-05T18:39:04.452Z,10.48
2022-11-05T18:41:33.286Z,11.07
2022-11-05T18:44:03.530Z,10.73
2022-11-05T18:49:21.446Z,9.77
2022-11-05T18:51:50.105Z,10.40
2022-11-05T18:54:18.172Z,12.10
2022-11-05T18:56:47.178Z,11.75
2022-11-05T19:02:09.781Z,11.60
2022-11-05T19:04:39.843Z,10.57
2022-11-05T19:07:08.838Z,10.43
2022-11-05T19:09:38.758Z,10.52
2022-11-05T19:12:08.541Z,10.65
2022-11-05T19:14:37.318Z,11.98
2022-11-05T19:17:07.548Z,10.52
2022-11-05T19:19:36.176Z,10.20
2022-11-05T19:22:04.572Z,9.70
2022-11-05T19:24:32.846Z,9.02
2022-11-05T19:27:01.862Z,8.68
2022-11-05T19:29:30.237Z,8.95
2022-11-05T19:31:58.612Z,9.25
2022-11-05T19:34:27.236Z,8.80
2022-11-05T19:36:55.553Z,9.00
2022-11-05T19:39:23.836Z,9.27
2022-11-05T19:41:52.822Z,8.98
2022-11-05T19:44:24.988Z,9.07
2022-11-05T19:46:53.815Z,9.85
2022-11-05T19:49:22.968Z,9.32
2022-11-05T19:51:52.057Z,8.38
2022-11-05T19:54:20.517Z,9.38
2022-11-05T19:56:50.841Z,8.95
2022-11-05T19:59:20.087Z,8.60
2022-11-05T20:01:48.816Z,8.00
2022-11-05T20:04:17.366Z,7.75
2022-11-05T20:06:46.252Z,7.35
2022-11-05T20:09:21.557Z,7.22
2022-11-05T20:11:55.076Z,5.78
2022-11-05T20:14:25.548Z,7.50
2022-11-05T20:16:54.196Z,7.68
2022-11-05T20:19:23.799Z,7.88
2022-11-05T20:21:52.328Z,8.38
2022-11-05T20:24:25.336Z,7.90
2022-11-05T20:26:56.227Z,8.40
2022-11-05T20:29:33.664Z,7.65
2022-11-05T20:32:02.995Z,7.15
2022-11-05T20:34:33.032Z,7.32
2022-11-05T20:37:02.452Z,7.28
2022-11-05T20:39:31.617Z,8.18
2022-11-05T20:42:03.156Z,8.57
2022-11-05T20:44:31.995Z,8.15
2022-11-05T20:47:00.610Z,7.25
2022-11-05T20:49:34.881Z,7.35
2022-11-05T20:52:03.822Z,6.80
2022-11-05T20:54:32.172Z,6.80
2022-11-05T20:57:00.442Z,7.50
2022-11-05T20:59:29.132Z,7.38
2022-11-05T21:01:58.083Z,7.35
2022-11-05T21:04:27.307Z,6.40
2022-11-05T21:06:59.095Z,6.60
2022-11-05T21:09:27.286Z,7.00
2022-11-05T21:12:13.310Z,6.90
2022-11-05T21:14:43.255Z,6.53
2022-11-05T21:17:12.370Z,7.03
2022-11-05T21:19:40.665Z,7.28
2022-11-05T21:22:09.025Z,7.25
2022-11-05T21:24:37.849Z,8.07
2022-11-05T21:27:06.481Z,7.28
2022-11-05T21:29:34.581Z,7.88
2022-11-05T21:32:02.861Z,7.50
2022-11-05T21:34:31.239Z,7.20
2022-11-05T21:36:59.795Z,6.38
2022-11-05T21:39:28.195Z,6.70
2022-11-05T21:41:56.927Z,7.03
2022-11-05T21:44:25.619Z,6.25
2022-11-05T21:46:57.973Z,7.40
2022-11-05T21:49:26.325Z,7.18
2022-11-05T21:52:13.241Z,7.20
2022-11-05T21:55:00.217Z,6.47
2022-11-05T21:57:46.898Z,6.45
2022-11-05T22:00:15.231Z,6.60
2022-11-05T22:02:43.533Z,6.10
2022-11-05T22:05:12.087Z,5.90
2022-11-05T22:07:40.365Z,6.07
2022-11-05T22:10:15.798Z,5.85
2022-11-05T22:12:45.653Z,6.50
2022-11-05T22:15:14.553Z,6.10
2022-11-05T22:17:46.952Z,6.72
2022-11-05T22:20:19.335Z,5.57
2022-11-05T22:22:47.501Z,5.65
2022-11-05T22:25:16.827Z,6.43
2022-11-05T22:27:45.592Z,5.70
2022-11-05T22:30:14.996Z,6.22
2022-11-05T22:32:43.220Z,6.40
2022-11-05T22:35:11.926Z,6.15
2022-11-05T22:37:40.530Z,6.60
2022-11-05T22:40:10.180Z,7.97
2022-11-05T22:42:38.603Z,8.25
2022-11-05T22:45:07.653Z,7.90
2022-11-05T22:47:36.423Z,8.60
2022-11-05T22:50:06.341Z,8.07
2022-11-05T22:52:35.015Z,6.90
2022-11-05T22:55:05.533Z,7.30
2022-11-05T22:57:34.056Z,9.02
2022-11-05T23:00:02.270Z,8.50
2022-11-05T23:02:30.868Z,8.30
2022-11-05T23:04:59.108Z,7.10
2022-11-05T23:07:45.656Z,7.47
2022-11-05T23:10:32.457Z,8.90
2022-11-05T23:13:00.701Z,8.75
2022-11-05T23:15:47.061Z,8.65
2022-11-05T23:18:34.071Z,8.75
2022-11-05T23:21:23.190Z,6.82
2022-11-05T23:24:07.196Z,8.13
2022-11-05T23:26:50.758Z,8.63
2022-11-05T23:29:25.215Z,8.88
2022-11-05T23:32:12.678Z,7.72
2022-11-05T23:34:41.243Z,8.00
2022-11-05T23:37:28.701Z,6.97
2022-11-05T23:42:44.238Z,8.20
2022-11-05T23:45:31.643Z,7.72
2022-11-05T23:48:19.302Z,7.72
2022-11-05T23:50:56.461Z,6.82
2022-11-05T23:53:25.467Z,8.20
2022-11-05T23:55:54.271Z,7.50
2022-11-05T23:58:22.596Z,8.05
